Latest Weather Observations for Ernabella/Pukatja

IDS60801

Issued at 9:05 pm CST Tuesday 30 September 2014 (issued every 30 minutes, with the page automatically refreshed every 10 minutes)

About weather observations | Map of weather stations | Latest weather observations for SA | Other Formats
Station Details ID: 016097 Name: PUKATJA Lat: -26.26 Lon: 132.18 Height: 703.2 m
Data from the previous 72 hours. | See also: Recent months at Ernabella/Pukatja
Date/Time
CST
Temp
°C
App
Temp
°C
Dew
Point
Rel
Hum
%
Delta-T
°C
Wind Press
QNH
hPa
Press
MSL
hPa
Rain
since 9 am
mm
Dir
 
Spd
km/h
Gust
km/h
Spd
kts
Gust
kts
30/09:00pm 27.3 19.8 -1.6 15 13.6 SSE 28 35 15 19 1020.1 1017.5 0.0
30/08:30pm 27.9 20.4 -1.1 15 13.8 S 28 39 15 21 1019.7 - 0.0
30/08:00pm 28.7 22.0 -1.4 14 14.4 S 24 43 13 23 1019.2 - 0.0
30/07:30pm 28.8 23.5 -3.4 12 14.9 S 15 20 8 11 1018.7 - 0.0
30/07:00pm 28.9 24.4 -3.3 12 14.9 S 11 15 6 8 1018.2 - 0.0
30/06:30pm 30.2 24.9 -3.5 11 15.7 S 15 20 8 11 1017.8 - 0.0
30/06:00pm 31.2 25.2 -2.7 11 16.1 SW 19 24 10 13 1017.5 1014.9 0.0
30/05:30pm 32.0 26.0 -3.4 10 16.7 SSW 19 33 10 18 1017.1 - 0.0
30/05:00pm 32.7 26.5 -2.9 10 17.1 SSW 20 30 11 16 1016.8 - 0.0
30/04:30pm 33.3 27.4 -2.4 10 17.3 WSW 19 32 10 17 1016.6 - 0.0
30/04:00pm 33.8 26.8 -3.5 9 17.8 SSW 24 33 13 18 1016.6 - 0.0
30/03:30pm 33.3 28.9 -2.4 10 17.3 NW 11 19 6 10 1016.7 - 0.0
30/03:00pm 33.1 26.6 -2.6 10 17.2 WSW 22 35 12 19 1016.8 1014.3 0.0
30/02:30pm 31.8 26.3 -2.3 11 16.4 SE 17 28 9 15 1017.0 - 0.0
30/02:00pm 33.5 27.8 -3.7 9 17.7 SW 17 24 9 13 1017.3 - 0.0
30/01:30pm 32.4 27.7 -1.8 11 16.6 WSW 13 24 7 13 1017.5 - 0.0
30/01:00pm 32.2 26.3 -2.0 11 16.6 ESE 19 33 10 18 1017.7 - 0.0
30/12:30pm 31.9 26.2 -1.0 12 16.2 S 19 28 10 15 1018.2 - 0.0
30/12:00pm 31.9 26.5 -1.0 12 16.2 SSE 17 26 9 14 1018.6 1016.0 0.0
30/11:30am 31.0 25.4 -2.9 11 16.0 S 17 30 9 16 1018.9 - 0.0
30/11:00am 30.7 25.8 -3.1 11 15.9 ESE 13 20 7 11 1019.0 - 0.0
30/10:30am 30.0 24.7 -3.6 11 15.6 E 15 22 8 12 1019.2 - 0.0
30/10:00am 29.0 23.7 -3.2 12 14.9 E 15 24 8 13 1019.4 - 0.0
30/09:30am 28.1 22.9 -2.9 13 14.4 E 15 20 8 11 1019.4 - 0.0
30/09:00am 26.4 20.9 -2.3 15 13.2 E 17 22 9 12 1019.2 1016.7 0.0
30/08:30am 25.0 21.3 -2.5 16 12.5 E 7 11 4 6 1019.1 - 0.0
30/08:00am 23.0 19.5 -2.6 18 11.4 N 6 7 3 4 1019.1 - 0.0
30/07:30am 20.5 18.3 -1.3 23 9.8 CALM 0 0 0 0 1018.6 - 0.0
30/07:24am 20.0 17.5 -1.2 24 9.5 S 2 7 1 4 1018.6 - 0.0
30/07:00am 14.9 11.2 -2.5 30 7.2 NE 7 9 4 5 1018.5 - 0.0
30/06:30am 14.2 10.7 -2.7 31 7.0 ENE 6 7 3 4 1018.0 - 0.0
30/06:00am 16.4 12.8 -2.1 28 7.9 E 7 11 4 6 1017.4 1014.8 0.0
30/05:30am 16.3 13.2 -2.7 27 8.0 SSW 4 7 2 4 1017.3 - 0.0
30/05:00am 17.2 13.2 -2.4 26 8.4 SW 9 11 5 6 1017.0 - 0.0
30/04:30am 18.1 15.8 -2.2 25 8.8 CALM 0 0 0 0 1016.5 - 0.0
30/04:00am 18.5 15.1 -2.4 24 9.0 NNW 6 7 3 4 1016.5 - 0.0
30/03:30am 20.6 16.7 -1.8 22 10.0 ESE 9 13 5 7 1016.3 - 0.0
30/03:00am 20.9 16.1 -2.2 21 10.2 ESE 13 19 7 10 1016.5 1013.9 0.0
30/02:30am 20.2 15.7 -3.4 20 10.1 E 11 22 6 12 1016.6 - 0.0
30/02:00am 21.9 17.5 -2.7 19 10.9 SE 11 19 6 10 1016.7 - 0.0
30/01:30am 20.4 17.0 -2.0 22 9.9 E 6 7 3 4 1017.0 - 0.0
30/01:00am 21.6 18.0 -2.3 20 10.6 E 7 11 4 6 1017.0 - 0.0
30/12:30am 22.6 18.2 -2.2 19 11.1 SSE 11 17 6 9 1016.8 - 0.0
30/12:00am 23.4 18.6 -2.2 18 11.6 SE 13 17 7 9 1016.6 1014.1 0.0
 
Date/Time
CST
Temp
°C
App
Temp
°C
Dew
Point
Rel
Hum
%
Delta-T
°C
Wind Press
QNH
hPa
Press
MSL
hPa
Rain
since 9 am
mm
Dir
 
Spd
km/h
Gust
km/h
Spd
kts
Gust
kts
29/11:30pm 22.4 17.6 -2.3 19 11.1 ESE 13 15 7 8 1016.5 - 0.0
29/11:00pm 23.7 18.6 -2.0 18 11.7 SE 15 24 8 13 1016.6 - 0.0
29/10:30pm 23.8 18.3 -1.9 18 11.7 ESE 17 22 9 12 1016.7 - 0.0
29/10:00pm 25.1 19.3 -1.6 17 12.4 SE 19 26 10 14 1016.8 - 0.0
29/09:30pm 25.3 20.3 -1.5 17 12.5 ESE 15 22 8 12 1016.7 - 0.0
29/09:00pm 25.7 19.9 -1.2 17 12.6 ESE 19 26 10 14 1016.5 1013.9 0.0
29/08:30pm 26.3 21.0 -0.7 17 12.8 SE 17 24 9 13 1016.2 - 0.0
29/08:00pm 27.6 22.3 -0.5 16 13.5 SE 17 22 9 12 1015.8 - 0.0
29/07:30pm 27.8 22.5 -0.3 16 13.6 ESE 17 22 9 12 1015.2 - 0.0
29/07:00pm 28.3 23.4 -0.8 15 14.0 SE 15 19 8 10 1014.9 - 0.0
29/06:30pm 29.3 23.4 -0.9 14 14.6 SSE 20 28 11 15 1014.3 - 0.0
29/06:00pm 30.5 25.9 -1.0 13 15.3 NNW 13 20 7 11 1014.1 1011.5 0.0
29/05:30pm 31.0 25.9 -1.7 12 15.8 NW 15 22 8 12 1013.7 - 0.0
29/05:00pm 32.0 26.5 -2.1 11 16.5 N 17 24 9 13 1013.6 - 0.0
29/04:30pm 32.1 27.1 -0.9 12 16.3 NNW 15 28 8 15 1013.5 - 0.0
29/04:00pm 32.6 28.1 -0.5 12 16.5 N 13 17 7 9 1013.8 - 0.0
29/03:30pm 30.9 25.6 -0.7 13 15.5 N 17 24 9 13 1013.8 - 0.0
29/03:00pm 30.7 26.3 0.2 14 15.2 NE 13 24 7 13 1014.3 1011.7 0.0
29/02:30pm 30.5 26.0 0.0 14 15.1 NNE 13 19 7 10 1014.8 - 0.0
29/02:00pm 30.4 25.7 0.9 15 14.8 NNE 15 28 8 15 1015.3 - 0.0
29/01:30pm 28.8 24.4 0.5 16 14.0 ENE 13 20 7 11 1015.9 - 0.0
29/01:00pm 29.3 25.1 1.7 17 14.0 ENE 13 20 7 11 1016.3 - 0.0
29/12:30pm 29.0 24.5 2.3 18 13.6 ENE 15 28 8 15 1016.6 - 0.0
29/12:00pm 26.9 22.4 2.1 20 12.4 ESE 15 24 8 13 1017.1 1014.5 0.0
29/11:30am 26.9 23.0 3.4 22 12.1 E 13 30 7 16 1017.4 - 0.0
29/11:00am 26.1 21.4 3.4 23 11.6 ESE 17 28 9 15 1017.8 - 0.0
29/10:30am 25.1 20.5 3.7 25 10.9 ESE 17 26 9 14 1018.2 - 0.0
29/10:00am 24.1 19.2 4.0 27 10.3 ESE 19 28 10 15 1018.5 - 0.0
29/09:30am 22.8 17.6 3.4 28 9.7 ESE 20 30 11 16 1018.5 - 0.0
29/09:00am 22.3 16.4 3.9 30 9.2 ESE 24 33 13 18 1018.3 1015.8 0.0
29/08:30am 21.2 15.3 3.9 32 8.6 ESE 24 33 13 18 1018.0 - 0.0
29/08:00am 20.3 14.7 3.5 33 8.3 SE 22 32 12 17 1018.0 - 0.0
29/07:30am 18.9 13.4 3.9 37 7.4 SE 22 33 12 18 1017.9 - 0.0
29/07:00am 18.3 13.4 4.1 39 7.0 SE 19 26 10 14 1017.8 - 0.0
29/06:30am 18.1 13.0 3.9 39 6.9 SE 20 30 11 16 1017.4 - 0.0
29/06:00am 18.4 12.9 4.2 39 7.0 SE 22 35 12 19 1017.2 1014.6 0.0
29/05:30am 18.8 12.5 3.8 37 7.4 SE 26 39 14 21 1016.7 - 0.0
29/05:00am 19.0 12.0 4.0 37 7.4 SE 30 39 16 21 1016.4 - 0.0
29/04:30am 19.5 13.1 3.2 34 7.9 SE 26 37 14 20 1016.4 - 0.0
29/04:00am 20.1 14.0 2.9 32 8.4 SE 24 33 13 18 1016.3 - 0.0
29/03:30am 20.4 14.7 2.7 31 8.6 SE 22 32 12 17 1016.2 - 0.0
29/03:00am 20.8 15.4 2.6 30 8.8 SE 20 30 11 16 1016.3 1013.7 0.0
29/02:30am 21.3 15.6 2.6 29 9.1 SE 22 35 12 19 1016.5 - 0.0
29/02:00am 21.5 17.4 2.2 28 9.4 SE 13 20 7 11 1017.0 - 0.0
29/01:30am 21.7 18.3 1.9 27 9.6 ESE 9 17 5 9 1016.8 - 0.0
29/01:00am 22.7 17.4 1.7 25 10.2 SSE 19 26 10 14 1016.8 - 0.0
29/12:30am 23.5 18.1 1.2 23 10.8 SSE 19 24 10 13 1016.6 - 0.0
29/12:00am 24.0 18.7 1.6 23 10.9 SSE 19 28 10 15 1016.8 1014.3 0.0
 
Date/Time
CST
Temp
°C
App
Temp
°C
Dew
Point
Rel
Hum
%
Delta-T
°C
Wind Press
QNH
hPa
Press
MSL
hPa
Rain
since 9 am
mm
Dir
 
Spd
km/h
Gust
km/h
Spd
kts
Gust
kts
28/11:30pm 24.3 18.9 1.2 22 11.2 SSE 19 26 10 14 1017.0 - 0.0
28/11:00pm 24.9 18.5 1.1 21 11.6 SSE 24 32 13 17 1017.2 - 0.0
28/10:30pm 25.2 19.2 1.3 21 11.7 SSE 22 28 12 15 1017.2 - 0.0
28/10:00pm 25.8 20.2 1.2 20 12.1 SSE 20 30 11 16 1017.4 - 0.0
28/09:30pm 26.2 19.9 1.5 20 12.2 S 24 35 13 19 1017.4 - 0.0
28/09:00pm 26.9 20.4 0.6 18 12.8 S 24 35 13 19 1017.0 1014.4 0.0
28/08:30pm 27.6 21.5 0.4 17 13.3 SSW 22 35 12 19 1016.5 - 0.0
28/08:00pm 28.3 22.2 0.1 16 13.8 S 22 28 12 15 1015.9 - 0.0
28/07:30pm 29.0 20.8 -1.2 14 14.5 S 32 43 17 23 1014.9 - 0.0
28/07:23pm 29.4 21.7 -2.9 12 15.1 S 28 37 15 20 1015.0 - 0.0
28/07:00pm 29.9 24.8 -5.0 10 15.8 NW 13 17 7 9 1014.5 - 0.0
28/06:30pm 31.3 25.1 -5.3 9 16.7 NW 19 32 10 17 1014.2 - 0.0
28/06:00pm 32.4 25.9 -6.0 8 17.4 NW 20 30 11 16 1014.0 1011.3 0.0
28/05:30pm 32.9 25.7 -5.7 8 17.7 NW 24 35 13 19 1013.8 - 0.0
28/05:00pm 33.4 26.6 -5.3 8 17.9 NW 22 35 12 19 1013.6 - 0.0
28/04:30pm 33.5 26.3 -5.2 8 17.9 NW 24 41 13 22 1013.4 - 0.0
28/04:00pm 33.7 26.1 -5.1 8 18.1 WNW 26 35 14 19 1013.7 - 0.0
28/03:30pm 34.1 26.6 -4.8 8 18.2 WNW 26 43 14 23 1013.8 - 0.0
28/03:00pm 34.1 27.0 -4.8 8 18.2 W 24 32 13 17 1013.8 1011.2 0.0
28/02:30pm 33.4 25.8 -5.3 8 17.9 NW 26 41 14 22 1014.3 - 0.0
28/02:00pm 33.4 26.2 -5.3 8 17.9 NW 24 41 13 22 1014.6 - 0.0
28/01:30pm 32.7 25.8 -5.8 8 17.6 NW 22 39 12 21 1015.0 - 0.0
28/01:00pm 33.0 25.0 -5.6 8 17.7 NW 28 39 15 21 1015.2 - 0.0
28/12:30pm 31.7 22.7 -6.6 8 17.1 NW 33 50 18 27 1015.7 - 0.0
28/12:19pm 31.7 22.9 -6.6 8 17.1 NW 32 50 17 27 1015.8 - 0.0
28/12:00pm 30.8 21.5 -5.7 9 16.4 NW 35 48 19 26 1016.0 1013.4 0.0
28/11:30am 29.7 19.5 -6.5 9 15.9 NW 39 52 21 28 1016.4 - 0.0
28/11:00am 29.8 20.4 -6.4 9 16.0 NW 35 46 19 25 1016.6 - 0.0
28/10:30am 29.2 21.6 -5.5 10 15.5 NW 26 41 14 22 1016.8 - 0.0
28/10:08am 28.2 20.1 -6.3 10 15.1 NNW 28 46 15 25 1016.8 - 0.0
28/10:00am 28.9 21.7 -5.7 10 15.4 NNW 24 35 13 19 1016.8 - 0.0
28/09:30am 27.7 20.5 -5.4 11 14.6 N 24 37 13 20 1017.2 - 0.0
28/09:00am 25.8 18.6 -5.7 12 13.6 N 24 35 13 19 1017.5 1014.9 0.0
28/08:30am 24.5 19.3 -5.7 13 12.9 NNE 13 24 7 13 1017.6 - 0.0
28/08:00am 23.0 18.2 -5.9 14 12.1 NE 11 15 6 8 1017.6 - 0.0
28/07:30am 20.7 16.4 -5.2 17 10.8 NE 9 17 5 9 1017.6 - 0.0
28/07:00am 17.6 13.6 -5.6 20 9.3 E 7 11 4 6 1017.5 - 0.0
28/06:30am 15.9 11.9 -5.8 22 8.5 E 7 9 4 5 1017.4 - 0.0
28/06:00am 18.0 12.8 -5.9 19 9.5 NE 13 17 7 9 1017.3 1014.7 0.0
28/05:30am 17.5 12.7 -6.3 19 9.4 E 11 17 6 9 1017.1 - 0.0
28/05:00am 19.2 13.2 -6.4 17 10.3 NNE 17 26 9 14 1016.8 - 0.0
28/04:30am 18.8 13.2 -6.0 18 10.0 ENE 15 24 8 13 1017.0 - 0.0
28/04:00am 18.2 11.8 -6.5 18 9.8 ENE 19 24 10 13 1017.0 - 0.0
28/03:30am 20.4 14.8 -6.2 16 10.8 NNE 15 20 8 11 1017.6 - 0.0
28/03:00am 19.6 15.2 -6.1 17 10.4 NE 9 15 5 8 1018.0 1015.5 0.0
28/02:30am 20.3 15.5 -6.3 16 10.8 NNE 11 17 6 9 1017.9 - 0.0
28/02:00am 20.4 15.7 -5.4 17 10.7 NNE 11 17 6 9 1018.1 - 0.0
28/01:30am 21.1 15.6 -5.7 16 11.1 NNE 15 24 8 13 1018.3 - 0.0
28/01:00am 21.4 15.6 -4.6 17 11.0 N 17 24 9 13 1018.3 - 0.0
28/12:30am 21.4 15.6 -4.6 17 11.0 N 17 22 9 12 1018.2 - 0.0
28/12:00am 21.7 16.7 -4.4 17 11.1 N 13 20 7 11 1018.5 1015.9 0.0
 
Date/Time
CST
Temp
°C
App
Temp
°C
Dew
Point
Rel
Hum
%
Delta-T
°C
Wind Press
QNH
hPa
Press
MSL
hPa
Rain
since 9 am
mm
Dir
 
Spd
km/h
Gust
km/h
Spd
kts
Gust
kts
27/11:30pm 20.6 16.5 -3.1 20 10.3 N 9 11 5 6 1018.5 - 0.0
27/11:00pm 20.8 17.2 -3.6 19 10.5 N 6 9 3 5 1018.6 - 0.0
27/10:30pm 22.0 17.1 -3.4 18 11.1 NNE 13 19 7 10 1018.3 - 0.0
27/10:00pm 21.0 16.9 -2.8 20 10.4 NNE 9 11 5 6 1018.2 - 0.0
27/09:30pm 21.6 17.1 -3.0 19 10.8 NNE 11 15 6 8 1018.2 - 0.0

Other Formats:

Comma delimited format used in spreadsheet applications
http://www.bom.gov.au/fwo/IDS60801/IDS60801.94474.axf

JavaScript Object Notation format (JSON) in row-major order
http://www.bom.gov.au/fwo/IDS60801/IDS60801.94474.json